Time;durP1;ratioP1;P1;durP2;ratioP2;P2;SDS_P1;SDS_P2;PMS_P1;PMS_P2;Temp;Humidity;BMP_temperature;BMP_pressure;BME280_temperature;BME280_humidity;BME280_pressure;Samples;Min_cycle;Max_cycle;Signal;HPM_P1;HPM_P2
2023/12/12 00:01:45;;;;;;;16.30;5.70;;;10.60;99.90;;;;;;5039230;28;20846;-72
2023/12/12 00:04:12;;;;;;;36.80;6.60;;;10.70;99.90;;;;;;5061648;28;20560;-72
2023/12/12 00:06:38;;;;;;;17.37;5.40;;;10.70;99.90;;;;;;5050615;28;20470;-72
2023/12/12 00:09:05;;;;;;;23.63;4.53;;;10.70;99.90;;;;;;5053246;28;20491;-72
2023/12/12 00:11:32;;;;;;;21.37;5.13;;;10.60;99.90;;;;;;5057458;28;20509;-72
2023/12/12 00:13:59;;;;;;;15.73;5.10;;;10.50;99.90;;;;;;5032082;28;20611;-72
2023/12/12 00:16:25;;;;;;;20.30;4.60;;;10.50;99.90;;;;;;5050613;28;20603;-71
2023/12/12 00:18:53;;;;;;;12.80;3.93;;;10.50;99.90;;;;;;5039203;28;20580;-72
2023/12/12 00:21:20;;;;;;;21.97;6.70;;;10.50;99.90;;;;;;5047881;28;20256;-72
2023/12/12 00:23:47;;;;;;;20.80;6.77;;;10.50;99.90;;;;;;5061526;28;20483;-71
2023/12/12 00:26:15;;;;;;;25.80;5.20;;;10.60;99.90;;;;;;5058266;28;20561;-72
2023/12/12 00:28:42;;;;;;;26.90;6.70;;;10.40;99.90;;;;;;5060474;28;20544;-73
2023/12/12 00:31:08;;;;;;;24.63;5.90;;;10.40;99.90;;;;;;5058576;28;20546;-72
2023/12/12 00:33:35;;;;;;;21.10;5.63;;;10.30;99.90;;;;;;5049690;28;20486;-72
2023/12/12 00:36:04;;;;;;;17.20;6.27;;;10.30;99.90;;;;;;5070974;28;20819;-72
2023/12/12 00:38:31;;;;;;;16.47;4.40;;;10.40;99.90;;;;;;5058644;28;20475;-71
2023/12/12 00:40:58;;;;;;;19.70;4.93;;;10.40;99.90;;;;;;5054540;28;20478;-72
2023/12/12 00:43:25;;;;;;;22.73;5.77;;;10.30;99.90;;;;;;5005737;28;20489;-72
2023/12/12 00:45:52;;;;;;;14.80;5.20;;;10.20;99.90;;;;;;5050966;28;20550;-71
2023/12/12 00:48:19;;;;;;;30.30;6.20;;;10.10;99.90;;;;;;5018846;28;20482;-72
2023/12/12 00:50:46;;;;;;;18.27;5.77;;;10.00;99.90;;;;;;5075979;28;20486;-71
2023/12/12 00:53:16;;;;;;;15.47;4.97;;;10.00;99.90;;;;;;5055423;28;20474;-72
2023/12/12 00:55:43;;;;;;;21.40;5.03;;;10.00;99.90;;;;;;5054069;28;20478;-71
2023/12/12 00:58:09;;;;;;;30.47;7.50;;;9.80;99.90;;;;;;5056098;28;20490;-72
2023/12/12 01:00:36;;;;;;;15.37;5.50;;;9.80;99.90;;;;;;5065028;28;20918;-72
2023/12/12 01:03:04;;;;;;;38.67;6.43;;;9.70;99.90;;;;;;5051799;28;22446;-72
2023/12/12 01:05:33;;;;;;;18.07;5.60;;;9.70;99.90;;;;;;5044603;28;20521;-71
2023/12/12 01:08:00;;;;;;;20.90;6.57;;;9.70;99.90;;;;;;5035920;28;20539;-71
2023/12/12 01:10:29;;;;;;;22.90;8.40;;;9.60;99.90;;;;;;5061459;28;20479;-71
2023/12/12 01:12:56;;;;;;;24.03;6.47;;;;;;;;;;5060350;28;20892;-71
2023/12/12 01:15:23;;;;;;;20.97;7.27;;;9.50;99.90;;;;;;5048837;28;20582;-71
2023/12/12 01:17:50;;;;;;;30.70;7.40;;;9.50;99.90;;;;;;5069322;28;20925;-72
2023/12/12 01:20:17;;;;;;;17.50;6.93;;;9.40;99.90;;;;;;5054762;28;20478;-72
2023/12/12 01:22:44;;;;;;;22.70;6.17;;;;;;;;;;5043363;28;20782;-72
2023/12/12 01:25:11;;;;;;;20.83;7.73;;;9.50;99.90;;;;;;5068454;28;20490;-72
2023/12/12 01:27:39;;;;;;;27.47;6.97;;;9.50;99.90;;;;;;5056491;28;20523;-72
2023/12/12 01:30:07;;;;;;;21.00;9.97;;;9.40;99.90;;;;;;5059803;28;20478;-72
2023/12/12 01:32:34;;;;;;;25.27;6.60;;;9.30;99.90;;;;;;5032559;28;20537;-71
2023/12/12 01:35:01;;;;;;;28.03;5.20;;;9.30;99.90;;;;;;5048110;28;20550;-72
2023/12/12 01:37:28;;;;;;;29.57;6.77;;;;;;;;;;5048899;28;20836;-72
2023/12/12 01:39:54;;;;;;;22.90;6.40;;;9.30;99.90;;;;;;5027524;28;20480;-71
2023/12/12 01:42:21;;;;;;;25.03;6.73;;;9.30;99.90;;;;;;5026481;28;20962;-71
2023/12/12 01:44:49;;;;;;;14.07;5.50;;;9.40;99.90;;;;;;5011403;28;20618;-72
2023/12/12 01:47:16;;;;;;;15.60;7.40;;;9.40;99.90;;;;;;5046860;28;20538;-72
2023/12/12 01:49:44;;;;;;;15.73;6.23;;;9.50;99.90;;;;;;5031271;28;20490;-72
2023/12/12 01:52:11;;;;;;;25.00;6.93;;;9.60;99.90;;;;;;5024707;28;20890;-71
2023/12/12 01:54:43;;;;;;;13.50;5.80;;;9.60;99.90;;;;;;5032654;28;20487;-71
2023/12/12 01:57:10;;;;;;;24.53;6.07;;;9.60;99.90;;;;;;5026791;28;20491;-72
2023/12/12 01:59:37;;;;;;;20.40;6.83;;;9.50;99.90;;;;;;5048402;28;20565;-72
2023/12/12 02:02:06;;;;;;;22.13;6.10;;;9.40;99.90;;;;;;5039416;28;20479;-72
2023/12/12 02:04:33;;;;;;;23.87;6.83;;;9.40;99.90;;;;;;5039212;28;20508;-72
2023/12/12 02:07:04;;;;;;;25.27;5.60;;;9.30;99.90;;;;;;5038929;28;20760;-72
2023/12/12 02:09:32;;;;;;;19.67;7.37;;;9.30;99.90;;;;;;5039766;28;20482;-72
2023/12/12 02:12:00;;;;;;;23.37;6.40;;;9.20;99.90;;;;;;5038648;28;20533;-71
2023/12/12 02:14:27;;;;;;;21.70;6.23;;;9.20;99.90;;;;;;5043238;28;20523;-72
2023/12/12 02:16:54;;;;;;;15.03;5.60;;;9.20;99.90;;;;;;5041125;28;20510;-72
2023/12/12 02:19:23;;;;;;;16.50;5.73;;;9.30;99.90;;;;;;5038055;28;20734;-72
2023/12/12 02:21:51;;;;;;;16.00;5.10;;;9.40;99.90;;;;;;5039787;28;20579;-72
2023/12/12 02:24:19;;;;;;;15.67;5.30;;;9.50;99.90;;;;;;5045871;28;20479;-72
2023/12/12 02:26:46;;;;;;;19.23;4.77;;;9.60;99.90;;;;;;5041378;28;20511;-71
2023/12/12 02:29:13;;;;;;;15.87;4.50;;;9.60;99.90;;;;;;5045063;28;20546;-72
2023/12/12 02:31:40;;;;;;;20.50;6.00;;;9.60;99.90;;;;;;5046547;28;20856;-72
2023/12/12 02:34:07;;;;;;;20.27;6.67;;;9.60;99.90;;;;;;5062910;28;20979;-72
2023/12/12 02:36:34;;;;;;;12.53;5.10;;;9.60;99.90;;;;;;5038700;28;20856;-72
2023/12/12 02:39:03;;;;;;;13.90;5.37;;;9.60;99.90;;;;;;5034560;28;20475;-72
2023/12/12 02:41:30;;;;;;;18.33;6.70;;;9.70;99.90;;;;;;5045281;28;20472;-71
2023/12/12 02:43:57;;;;;;;14.57;6.07;;;9.80;99.90;;;;;;5023077;28;20490;-72
2023/12/12 02:46:24;;;;;;;44.63;8.30;;;9.90;99.90;;;;;;5002053;28;20479;-72
2023/12/12 02:48:50;;;;;;;15.10;5.30;;;9.90;99.90;;;;;;5033069;28;20492;-71
2023/12/12 02:51:17;;;;;;;11.47;5.70;;;9.90;99.90;;;;;;5038301;28;20483;-71
2023/12/12 02:53:44;;;;;;;25.53;5.93;;;9.90;99.90;;;;;;5039037;28;20483;-72
2023/12/12 02:56:12;;;;;;;15.97;5.70;;;9.90;99.90;;;;;;5034060;28;20492;-72
2023/12/12 02:58:39;;;;;;;10.90;5.00;;;9.90;99.90;;;;;;5035024;28;20475;-73
2023/12/12 03:01:06;;;;;;;18.20;5.67;;;9.90;99.90;;;;;;5027120;28;20484;-73
2023/12/12 03:03:33;;;;;;;11.50;5.60;;;9.80;99.90;;;;;;5056837;28;20529;-72
2023/12/12 03:05:59;;;;;;;23.07;6.70;;;9.70;99.90;;;;;;5051255;28;20523;-73
2023/12/12 03:08:26;;;;;;;17.20;4.73;;;;;;;;;;5043425;28;20522;-73
2023/12/12 03:10:53;;;;;;;22.70;5.70;;;9.40;99.90;;;;;;5049535;28;20241;-72
2023/12/12 03:13:21;;;;;;;18.03;6.63;;;9.30;99.90;;;;;;5029183;28;20475;-72
2023/12/12 03:15:48;;;;;;;19.07;5.83;;;9.40;99.90;;;;;;5054970;28;20495;-72
2023/12/12 03:18:15;;;;;;;15.83;4.83;;;9.50;99.90;;;;;;5026730;28;20534;-72
2023/12/12 03:20:42;;;;;;;40.00;6.33;;;;;;;;;;5023768;28;20536;-72
2023/12/12 03:23:09;;;;;;;10.73;4.50;;;9.60;99.90;;;;;;5036456;28;20487;-72
2023/12/12 03:25:36;;;;;;;19.90;7.80;;;9.70;99.90;;;;;;5043689;28;21087;-72
2023/12/12 03:28:03;;;;;;;22.73;7.30;;;9.70;99.90;;;;;;5045935;28;20548;-72
2023/12/12 03:30:31;;;;;;;12.23;6.20;;;9.70;99.90;;;;;;5055115;28;20498;-72
2023/12/12 03:32:59;;;;;;;18.67;6.73;;;9.80;99.90;;;;;;5038639;28;21450;-72
2023/12/12 03:35:26;;;;;;;14.13;6.60;;;9.80;99.90;;;;;;5054012;28;20483;-72
2023/12/12 03:37:53;;;;;;;14.33;8.90;;;9.80;99.90;;;;;;5055170;28;20899;-72
2023/12/12 03:40:19;;;;;;;25.63;10.10;;;9.80;99.90;;;;;;5063505;28;20525;-72
2023/12/12 03:42:46;;;;;;;26.57;10.87;;;9.90;99.90;;;;;;5043559;28;20486;-72
2023/12/12 03:45:13;;;;;;;19.43;7.73;;;9.90;99.90;;;;;;5052044;28;20897;-72
2023/12/12 03:47:41;;;;;;;16.43;8.50;;;9.90;99.90;;;;;;5061192;28;21110;-73
2023/12/12 03:50:09;;;;;;;26.00;8.33;;;10.00;99.90;;;;;;5054979;28;20482;-72
2023/12/12 03:52:36;;;;;;;18.27;8.27;;;10.00;99.90;;;;;;5056605;28;20556;-72
2023/12/12 03:55:06;;;;;;;26.40;7.40;;;10.00;99.90;;;;;;5053442;28;20491;-72
2023/12/12 03:57:32;;;;;;;11.93;4.37;;;10.00;99.90;;;;;;5054406;28;21117;-72
2023/12/12 03:59:59;;;;;;;11.10;3.73;;;9.90;99.90;;;;;;5053508;28;20545;-72
2023/12/12 04:02:28;;;;;;;20.50;4.83;;;9.90;99.90;;;;;;5063507;28;20958;-74
2023/12/12 04:04:56;;;;;;;11.10;3.93;;;9.90;99.90;;;;;;5052442;28;20490;-75
2023/12/12 04:07:23;;;;;;;8.30;4.43;;;9.90;99.90;;;;;;5050797;28;21312;-74
2023/12/12 04:09:50;;;;;;;7.70;4.17;;;9.90;99.90;;;;;;5068623;28;20540;-74
2023/12/12 04:12:17;;;;;;;15.73;5.30;;;10.00;99.90;;;;;;5043846;28;21077;-74
2023/12/12 04:14:44;;;;;;;17.17;4.97;;;10.00;99.90;;;;;;5055861;28;20552;-74
2023/12/12 04:17:11;;;;;;;6.97;4.30;;;10.00;99.90;;;;;;5060115;28;20521;-74
2023/12/12 04:19:37;;;;;;;12.50;4.37;;;10.00;99.90;;;;;;5034558;28;21440;-74
2023/12/12 04:22:06;;;;;;;14.67;6.10;;;10.00;99.90;;;;;;5067381;28;20528;-75
2023/12/12 04:24:33;;;;;;;9.43;5.27;;;10.10;99.90;;;;;;5005991;28;20926;-75
2023/12/12 04:27:00;;;;;;;10.50;7.43;;;10.10;99.90;;;;;;5048289;28;20888;-75
2023/12/12 04:29:27;;;;;;;26.77;6.70;;;10.10;99.90;;;;;;5065108;28;20487;-75
2023/12/12 04:31:54;;;;;;;23.83;14.90;;;10.10;99.90;;;;;;5061559;28;20478;-76
2023/12/12 04:34:20;;;;;;;19.97;10.80;;;10.10;99.90;;;;;;5033457;28;20474;-75
2023/12/12 04:36:48;;;;;;;18.60;7.50;;;10.10;99.90;;;;;;5052031;28;20482;-74
2023/12/12 04:39:17;;;;;;;22.33;11.13;;;10.10;99.90;;;;;;5053091;28;21031;-74
2023/12/12 04:41:44;;;;;;;44.77;17.07;;;10.10;99.90;;;;;;5064857;28;20496;-75
2023/12/12 04:44:11;;;;;;;27.67;8.20;;;10.10;99.90;;;;;;5054670;28;20536;-75
2023/12/12 04:46:38;;;;;;;31.13;9.93;;;10.20;99.90;;;;;;5043431;28;20478;-74
2023/12/12 04:49:05;;;;;;;22.87;9.97;;;10.20;99.90;;;;;;5055333;28;21048;-74
2023/12/12 04:51:31;;;;;;;26.70;9.10;;;10.20;99.90;;;;;;5068540;28;20560;-74
2023/12/12 04:53:58;;;;;;;12.80;7.17;;;10.20;99.90;;;;;;5050655;28;20904;-75
2023/12/12 04:56:27;;;;;;;21.53;7.40;;;10.30;99.90;;;;;;5048701;28;20521;-75
2023/12/12 04:58:54;;;;;;;27.03;7.57;;;10.20;99.90;;;;;;5046847;28;20481;-75
2023/12/12 05:01:21;;;;;;;34.40;7.97;;;10.20;99.90;;;;;;5056852;28;20535;-75
2023/12/12 05:03:47;;;;;;;29.60;7.40;;;10.20;99.90;;;;;;5063255;28;20474;-75
2023/12/12 05:06:14;;;;;;;26.90;11.50;;;10.20;99.90;;;;;;5071253;28;21100;-75
2023/12/12 05:08:41;;;;;;;26.13;9.60;;;10.20;99.90;;;;;;5059038;28;20531;-74
2023/12/12 05:11:09;;;;;;;34.43;9.13;;;10.20;99.90;;;;;;5060303;28;20689;-75
2023/12/12 05:13:37;;;;;;;24.33;8.30;;;10.20;99.90;;;;;;5056928;28;20514;-74
2023/12/12 05:16:05;;;;;;;33.20;8.10;;;10.20;99.90;;;;;;5059844;28;20761;-74
2023/12/12 05:18:32;;;;;;;26.33;8.07;;;10.20;99.90;;;;;;5061171;28;20476;-74
2023/12/12 05:20:58;;;;;;;34.07;8.40;;;10.20;99.90;;;;;;5049250;28;20506;-74
2023/12/12 05:23:26;;;;;;;45.07;10.90;;;10.30;99.90;;;;;;5070299;28;20479;-72
2023/12/12 05:25:52;;;;;;;32.00;9.97;;;10.30;99.90;;;;;;5050531;28;20457;-72
2023/12/12 05:28:21;;;;;;;38.83;8.70;;;10.30;99.90;;;;;;5034459;28;20989;-72
2023/12/12 05:30:49;;;;;;;33.77;8.87;;;10.30;99.90;;;;;;5053045;28;20615;-72
2023/12/12 05:33:16;;;;;;;33.47;9.67;;;10.30;99.90;;;;;;5063923;28;20475;-75
2023/12/12 05:35:43;;;;;;;53.17;9.63;;;10.30;99.90;;;;;;5063652;28;21048;-76
2023/12/12 05:38:10;;;;;;;37.50;9.33;;;10.20;99.90;;;;;;5060013;28;20528;-74
2023/12/12 05:40:37;;;;;;;32.17;9.73;;;10.20;99.90;;;;;;5044241;28;20487;-75
2023/12/12 05:43:03;;;;;;;25.63;7.93;;;10.20;99.90;;;;;;5032302;28;20560;-74
2023/12/12 05:45:30;;;;;;;30.83;8.90;;;10.30;99.90;;;;;;5059444;28;20470;-76
2023/12/12 05:47:59;;;;;;;48.70;10.27;;;10.30;99.90;;;;;;5017914;28;20493;-73
2023/12/12 05:50:25;;;;;;;30.83;11.10;;;10.40;99.90;;;;;;5052060;28;20548;-74
2023/12/12 05:52:52;;;;;;;37.03;11.23;;;10.50;99.90;;;;;;5012295;28;20570;-75
2023/12/12 05:55:19;;;;;;;41.50;11.50;;;10.50;99.90;;;;;;5035265;28;20907;-75
2023/12/12 05:57:46;;;;;;;39.17;10.60;;;10.50;99.90;;;;;;5053264;28;20482;-75
2023/12/12 06:00:14;;;;;;;39.13;10.73;;;10.50;99.90;;;;;;5066868;28;20517;-75
2023/12/12 06:02:39;;;;;;;45.13;12.17;;;10.50;99.90;;;;;;5037145;28;20575;-74
2023/12/12 06:05:08;;;;;;;32.80;10.50;;;10.50;99.90;;;;;;5050951;28;20467;-74
2023/12/12 06:07:35;;;;;;;33.83;9.23;;;10.60;99.90;;;;;;5039555;28;20706;-74
2023/12/12 06:10:04;;;;;;;31.80;11.10;;;10.60;99.90;;;;;;5056257;28;20492;-74
2023/12/12 06:12:31;;;;;;;34.30;11.43;;;;;;;;;;5046631;28;21106;-74
2023/12/12 06:14:59;;;;;;;40.17;10.03;;;10.60;99.90;;;;;;5048437;28;20541;-74
2023/12/12 06:17:26;;;;;;;34.20;9.63;;;10.70;99.90;;;;;;5030206;28;20503;-74
2023/12/12 06:19:53;;;;;;;24.63;9.37;;;10.70;99.90;;;;;;5049883;28;20491;-74
2023/12/12 06:22:22;;;;;;;25.50;9.10;;;10.60;99.90;;;;;;5045291;28;20487;-76
2023/12/12 06:24:51;;;;;;;33.33;9.30;;;10.60;99.90;;;;;;5049702;28;20480;-77
2023/12/12 06:27:18;;;;;;;35.17;11.77;;;;;;;;;;5046612;28;20581;-77
2023/12/12 06:29:45;;;;;;;38.87;11.03;;;10.60;99.90;;;;;;5036403;28;20990;-77
2023/12/12 06:32:12;;;;;;;35.47;11.10;;;10.60;99.90;;;;;;5048138;28;20893;-77
2023/12/12 06:34:38;;;;;;;28.47;10.77;;;10.60;99.90;;;;;;5053617;28;20519;-77
2023/12/12 06:37:05;;;;;;;34.37;11.27;;;10.60;99.90;;;;;;5023410;28;20552;-78
2023/12/12 06:39:34;;;;;;;66.17;13.13;;;10.50;99.90;;;;;;5044186;28;20540;-79
2023/12/12 06:42:00;;;;;;;61.43;12.80;;;10.30;99.90;;;;;;5034601;28;20479;-78
2023/12/12 06:44:28;;;;;;;37.83;10.30;;;10.10;99.90;;;;;;5015665;28;20484;-80
2023/12/12 06:46:54;;;;;;;31.53;9.80;;;10.20;99.90;;;;;;5029723;28;20479;-80
2023/12/12 06:49:21;;;;;;;29.50;9.73;;;10.30;99.90;;;;;;5017603;28;20494;-82
2023/12/12 06:51:49;;;;;;;26.67;12.77;;;10.40;99.90;;;;;;5038161;28;20487;-81
2023/12/12 06:54:16;;;;;;;40.07;11.33;;;10.40;99.90;;;;;;5036639;28;20471;-81
2023/12/12 06:56:44;;;;;;;29.53;10.93;;;10.50;99.90;;;;;;5029996;28;20475;-79
2023/12/12 06:59:12;;;;;;;28.47;13.10;;;10.50;99.90;;;;;;5042880;28;20482;-81
2023/12/12 07:01:39;;;;;;;35.50;13.37;;;10.60;99.90;;;;;;5044534;28;20581;-80
2023/12/12 07:04:06;;;;;;;54.20;16.60;;;10.60;99.90;;;;;;5055252;28;21226;-83
2023/12/12 07:06:33;;;;;;;34.10;11.20;;;;;;;;;;5040302;28;20483;-79
2023/12/12 07:09:00;;;;;;;39.50;10.03;;;10.60;99.90;;;;;;5036011;28;20487;-80
2023/12/12 07:11:27;;;;;;;29.93;9.70;;;10.50;99.90;;;;;;5025162;28;20874;-80
2023/12/12 07:13:55;;;;;;;60.03;12.53;;;10.50;99.90;;;;;;5031765;28;21049;-78
2023/12/12 07:16:25;;;;;;;49.50;12.43;;;10.40;99.90;;;;;;5029353;28;20482;-80
2023/12/12 07:18:53;;;;;;;101.00;13.90;;;10.30;99.90;;;;;;5025329;28;20537;-79
2023/12/12 07:21:21;;;;;;;61.50;10.87;;;10.10;99.90;;;;;;5059052;28;21023;-80
2023/12/12 07:23:49;;;;;;;36.10;10.73;;;10.10;99.90;;;;;;5062467;28;20875;-80
2023/12/12 07:26:17;;;;;;;34.40;9.90;;;10.20;99.90;;;;;;5049056;28;20533;-79
2023/12/12 07:28:44;;;;;;;45.87;10.60;;;10.30;99.90;;;;;;5055388;28;21941;-81
2023/12/12 07:31:14;;;;;;;34.63;11.10;;;10.30;99.90;;;;;;5041721;28;20909;-79
2023/12/12 07:33:41;;;;;;;37.20;10.63;;;10.30;99.90;;;;;;5031868;28;20516;-80
2023/12/12 07:36:08;;;;;;;24.63;10.40;;;10.40;99.90;;;;;;5038929;28;20480;-77
2023/12/12 07:38:36;;;;;;;25.53;8.63;;;10.40;99.90;;;;;;5031249;28;20476;-80
2023/12/12 07:41:02;;;;;;;22.90;9.20;;;10.40;99.90;;;;;;5030411;28;20904;-77
2023/12/12 07:43:30;;;;;;;29.10;9.50;;;;;;;;;;5028855;28;20527;-77
2023/12/12 07:45:57;;;;;;;21.60;10.17;;;10.40;99.90;;;;;;5027017;28;20550;-77
2023/12/12 07:48:25;;;;;;;25.47;8.37;;;10.40;99.90;;;;;;5040716;28;21005;-77
2023/12/12 07:50:52;;;;;;;15.60;7.40;;;10.30;99.90;;;;;;5026474;28;20907;-78
2023/12/12 07:53:18;;;;;;;19.03;8.77;;;10.30;99.90;;;;;;5034248;28;20475;-74
2023/12/12 07:55:45;;;;;;;22.30;10.80;;;10.40;99.90;;;;;;5026139;28;20492;-74
2023/12/12 07:58:12;;;;;;;38.37;15.20;;;10.50;99.90;;;;;;5046511;28;20520;-75
2023/12/12 08:00:39;;;;;;;33.50;11.67;;;10.50;99.90;;;;;;5026897;28;20492;-74
2023/12/12 08:03:09;;;;;;;43.13;14.13;;;10.50;99.90;;;;;;5033753;28;20483;-75
2023/12/12 08:05:37;;;;;;;20.90;9.47;;;10.50;99.90;;;;;;5025536;28;20496;-75
2023/12/12 08:08:06;;;;;;;19.53;9.50;;;10.60;99.90;;;;;;5027327;28;20541;-75
2023/12/12 08:10:33;;;;;;;20.13;11.37;;;10.70;99.90;;;;;;5030660;28;20499;-75
2023/12/12 08:13:00;;;;;;;36.20;12.60;;;10.70;99.90;;;;;;5021284;28;20494;-75
2023/12/12 08:15:27;;;;;;;24.07;11.07;;;10.80;99.90;;;;;;5022540;28;20487;-75
2023/12/12 08:17:55;;;;;;;19.37;9.90;;;;;;;;;;5012314;28;20479;-75
2023/12/12 08:20:22;;;;;;;20.70;12.03;;;10.90;99.90;;;;;;5037397;28;20481;-75
2023/12/12 08:22:51;;;;;;;27.97;15.70;;;10.90;99.90;;;;;;5046940;28;20897;-75
2023/12/12 08:25:19;;;;;;;39.47;18.40;;;10.90;99.90;;;;;;5046503;28;20478;-75
2023/12/12 08:27:47;;;;;;;28.30;15.03;;;11.00;99.90;;;;;;5047709;28;20457;-75
2023/12/12 08:30:14;;;;;;;41.40;21.53;;;11.00;99.90;;;;;;5060989;28;20501;-75
2023/12/12 08:32:41;;;;;;;65.47;33.50;;;;;;;;;;5043125;28;21193;-75
2023/12/12 08:35:09;;;;;;;50.07;29.27;;;11.00;99.90;;;;;;5041375;28;20841;-75
2023/12/12 08:37:34;;;;;;;55.00;28.33;;;11.10;99.90;;;;;;5006443;28;20488;-75
2023/12/12 08:40:03;;;;;;;32.90;14.23;;;11.10;99.90;;;;;;5039346;28;21261;-75
2023/12/12 08:42:30;;;;;;;21.13;13.73;;;11.10;99.90;;;;;;4987920;28;20240;-76
2023/12/12 08:44:57;;;;;;;22.67;12.30;;;11.00;99.90;;;;;;5015385;28;20486;-76
2023/12/12 08:47:24;;;;;;;22.83;12.00;;;11.00;99.90;;;;;;5031531;28;20504;-76
2023/12/12 08:49:51;;;;;;;24.50;15.50;;;11.00;99.90;;;;;;5024801;28;20546;-76
2023/12/12 08:52:17;;;;;;;31.97;18.60;;;11.10;99.90;;;;;;5036599;28;20482;-75
2023/12/12 08:54:45;;;;;;;35.63;19.97;;;11.10;99.90;;;;;;5036585;28;21663;-76
2023/12/12 08:57:17;;;;;;;28.77;17.90;;;11.10;99.90;;;;;;5028042;28;20475;-76
2023/12/12 08:59:44;;;;;;;21.77;13.20;;;11.10;99.90;;;;;;5031530;28;20491;-76
2023/12/12 09:02:11;;;;;;;14.70;8.80;;;11.10;99.90;;;;;;5023940;28;20536;-77
2023/12/12 09:04:38;;;;;;;13.70;8.37;;;11.10;99.90;;;;;;5050238;28;20480;-79
2023/12/12 09:07:05;;;;;;;19.80;9.03;;;11.20;99.90;;;;;;5036593;28;20775;-79
2023/12/12 09:09:32;;;;;;;20.40;11.33;;;11.20;99.90;;;;;;5054883;28;20486;-79
2023/12/12 09:12:00;;;;;;;42.90;17.40;;;11.20;99.90;;;;;;5042645;28;20464;-79
2023/12/12 09:14:28;;;;;;;28.90;16.63;;;11.20;99.90;;;;;;5041951;28;20482;-78
2023/12/12 09:16:56;;;;;;;38.10;18.50;;;11.20;99.90;;;;;;5026572;28;20495;-78
2023/12/12 09:19:23;;;;;;;31.10;19.23;;;;;;;;;;5041430;28;20528;-77
2023/12/12 09:21:51;;;;;;;33.37;14.77;;;11.20;99.90;;;;;;5029880;28;20860;-77
2023/12/12 09:24:17;;;;;;;15.50;10.07;;;11.20;99.90;;;;;;5036474;28;20484;-77
2023/12/12 09:26:45;;;;;;;12.47;8.17;;;;;;;;;;5030830;28;20479;-77
2023/12/12 09:29:13;;;;;;;24.93;12.57;;;11.20;99.90;;;;;;5023921;28;20471;-76
2023/12/12 09:31:41;;;;;;;19.47;13.63;;;11.20;99.90;;;;;;5036696;28;20823;-77
2023/12/12 09:34:08;;;;;;;21.33;14.70;;;11.20;99.90;;;;;;5023844;28;20483;-77
2023/12/12 09:36:35;;;;;;;12.83;7.07;;;11.30;99.90;;;;;;5047441;28;20479;-77
2023/12/12 09:39:06;;;;;;;11.77;6.97;;;;;;;;;;5036322;28;20480;-76
2023/12/12 09:41:33;;;;;;;8.93;5.83;;;11.30;99.90;;;;;;5033892;28;20476;-77
2023/12/12 09:44:02;;;;;;;10.43;7.50;;;11.40;99.90;;;;;;5023245;28;20939;-76
2023/12/12 09:46:31;;;;;;;24.90;11.90;;;11.40;99.90;;;;;;5049664;28;20480;-77
2023/12/12 09:49:01;;;;;;;20.53;12.07;;;11.40;99.90;;;;;;5034097;28;20471;-76
2023/12/12 09:51:28;;;;;;;21.43;12.60;;;11.40;99.90;;;;;;5027136;28;20483;-76
2023/12/12 09:53:56;;;;;;;17.93;13.50;;;11.40;99.90;;;;;;5045620;28;20491;-76
2023/12/12 09:56:24;;;;;;;24.20;16.23;;;11.40;99.90;;;;;;5031369;28;20479;-76
2023/12/12 09:58:51;;;;;;;31.47;18.23;;;11.50;99.90;;;;;;5005906;28;20982;-77
2023/12/12 10:01:19;;;;;;;33.47;21.47;;;11.30;99.90;;;;;;5047467;28;20971;-77
2023/12/12 10:03:46;;;;;;;21.20;15.70;;;11.20;99.90;;;;;;5014741;28;20683;-77
2023/12/12 10:06:17;;;;;;;15.43;8.87;;;11.00;99.90;;;;;;5046328;28;21191;-77
2023/12/12 10:08:45;;;;;;;15.23;9.60;;;11.00;99.90;;;;;;5041716;28;20475;-76
2023/12/12 10:11:12;;;;;;;14.83;9.47;;;11.00;99.90;;;;;;5030131;28;20488;-76
2023/12/12 10:13:48;;;;;;;32.40;7.87;;;11.00;99.90;;;;;;5035123;28;20480;-76
2023/12/12 10:16:15;;;;;;;6.53;5.90;;;11.00;99.90;;;;;;5033838;28;20464;-75
2023/12/12 10:18:44;;;;;;;4.90;4.37;;;11.00;99.90;;;;;;5034904;28;20472;-75
2023/12/12 10:21:17;;;;;;;4.83;3.80;;;11.20;99.90;;;;;;5030449;28;20486;-77
2023/12/12 10:23:45;;;;;;;12.77;8.00;;;11.40;99.90;;;;;;5032292;28;20487;-76
2023/12/12 10:26:13;;;;;;;13.10;9.87;;;11.50;99.90;;;;;;5029572;28;20583;-76
2023/12/12 10:28:41;;;;;;;9.00;4.60;;;11.60;99.90;;;;;;5056718;28;20483;-76
2023/12/12 10:31:09;;;;;;;8.77;6.23;;;11.70;99.90;;;;;;5031795;28;20479;-76
2023/12/12 10:33:38;;;;;;;10.40;6.77;;;11.80;99.90;;;;;;5010338;28;21192;-76
2023/12/12 10:36:09;;;;;;;17.57;12.23;;;11.80;99.90;;;;;;5034280;28;20485;-76
2023/12/12 10:38:39;;;;;;;20.03;14.40;;;11.90;99.90;;;;;;5029287;28;20475;-76
2023/12/12 10:41:14;;;;;;;48.37;11.57;;;11.90;99.90;;;;;;5026012;28;20483;-76
2023/12/12 10:43:42;;;;;;;10.77;7.97;;;12.00;99.90;;;;;;5029022;28;20479;-77
2023/12/12 10:46:12;;;;;;;13.00;9.20;;;12.00;99.90;;;;;;5035336;28;20453;-78
2023/12/12 10:48:44;;;;;;;14.20;9.23;;;12.10;99.90;;;;;;5045811;28;20475;-77
2023/12/12 10:51:12;;;;;;;16.63;9.93;;;12.20;99.90;;;;;;5041156;28;20468;-77
2023/12/12 10:53:42;;;;;;;16.87;11.13;;;12.20;99.90;;;;;;5035498;28;20480;-78
2023/12/12 10:56:10;;;;;;;9.43;5.50;;;12.10;99.90;;;;;;5034173;28;20929;-78
2023/12/12 10:58:40;;;;;;;3.80;2.90;;;12.00;99.90;;;;;;5038593;28;20479;-76
2023/12/12 11:01:08;;;;;;;7.47;4.70;;;12.00;99.90;;;;;;5032118;28;20454;-77
2023/12/12 11:03:36;;;;;;;4.03;2.50;;;12.00;99.90;;;;;;5045725;28;20483;-77
2023/12/12 11:06:04;;;;;;;2.50;2.13;;;11.90;99.90;;;;;;5046393;28;20487;-76
2023/12/12 11:08:31;;;;;;;2.43;2.23;;;;;;;;;;5025834;28;20475;-78
2023/12/12 11:11:02;;;;;;;10.30;2.13;;;12.00;99.90;;;;;;5042091;28;20524;-72
2023/12/12 11:13:33;;;;;;;3.43;2.03;;;11.90;99.90;;;;;;5052996;28;20833;-74
2023/12/12 11:16:03;;;;;;;8.73;2.10;;;11.80;99.90;;;;;;5034694;28;20486;-72
2023/12/12 11:18:30;;;;;;;2.40;1.50;;;11.90;99.90;;;;;;5065024;28;20585;-71
2023/12/12 11:20:57;;;;;;;1.90;1.50;;;11.90;99.90;;;;;;5052640;28;20474;-72
2023/12/12 11:23:54;;;;;;;1.77;1.17;;;12.00;99.90;;;;;;5029471;28;20475;-70
2023/12/12 11:26:25;;;;;;;2.00;1.27;;;12.10;99.90;;;;;;5034909;28;20479;-71
2023/12/12 11:28:54;;;;;;;2.60;1.67;;;12.00;99.90;;;;;;4992858;28;20487;-69
2023/12/12 11:31:22;;;;;;;3.50;1.60;;;;;;;;;;5041173;28;20487;-71
2023/12/12 11:34:08;;;;;;;2.27;1.30;;;12.20;99.90;;;;;;4987828;28;20557;-70
2023/12/12 11:36:52;;;;;;;30.47;2.83;;;12.30;99.90;;;;;;5023185;28;20970;-70
2023/12/12 11:39:29;;;;;;;2.30;1.77;;;12.50;99.90;;;;;;5040848;28;20494;-73
2023/12/12 11:41:58;;;;;;;4.37;1.33;;;12.50;99.90;;;;;;5012382;28;20479;-70
2023/12/12 11:44:39;;;;;;;5.60;1.37;;;12.60;99.90;;;;;;5012991;28;20533;-71
2023/12/12 11:47:06;;;;;;;1.90;1.20;;;12.60;99.90;;;;;;5028544;28;20915;-70
2023/12/12 11:49:33;;;;;;;2.90;1.20;;;12.70;99.90;;;;;;5048276;28;20483;-71
2023/12/12 11:52:00;;;;;;;2.00;1.37;;;12.90;99.90;;;;;;5036235;28;20463;-71
2023/12/12 11:54:27;;;;;;;5.83;1.47;;;12.90;99.90;;;;;;5064379;28;21539;-70
2023/12/12 11:56:59;;;;;;;15.43;2.20;;;12.80;99.90;;;;;;5044897;28;20488;-70
2023/12/12 11:59:32;;;;;;;2.03;1.00;;;12.90;99.90;;;;;;5054283;28;21314;-69
2023/12/12 12:02:03;;;;;;;1.77;1.20;;;12.80;99.90;;;;;;5020705;28;21079;-70
2023/12/12 12:04:33;;;;;;;4.63;1.47;;;12.80;99.90;;;;;;5036299;28;20923;-69
2023/12/12 12:07:04;;;;;;;19.63;3.90;;;12.80;99.90;;;;;;5036698;28;20900;-69
2023/12/12 12:09:34;;;;;;;1.90;1.23;;;12.70;99.90;;;;;;5034757;28;20561;-70
2023/12/12 12:12:12;;;;;;;8.23;2.40;;;12.70;99.90;;;;;;5028197;28;20452;-70
2023/12/12 12:14:41;;;;;;;1.90;1.00;;;12.80;99.90;;;;;;5043253;28;20488;-71
2023/12/12 12:17:09;;;;;;;2.23;1.27;;;12.80;99.90;;;;;;5063935;28;21151;-69
2023/12/12 12:19:38;;;;;;;3.07;1.37;;;12.90;99.90;;;;;;5051610;28;20581;-71
2023/12/12 12:22:06;;;;;;;1.70;1.17;;;12.90;99.90;;;;;;5057078;28;20589;-72
2023/12/12 12:24:33;;;;;;;7.47;2.00;;;12.90;99.90;;;;;;5053415;28;21066;-72
2023/12/12 12:27:00;;;;;;;2.00;0.90;;;13.00;99.90;;;;;;5031331;28;20539;-73
2023/12/12 12:29:28;;;;;;;2.67;1.40;;;13.00;99.90;;;;;;5044570;28;20477;-73
2023/12/12 12:31:55;;;;;;;6.93;1.30;;;13.30;99.90;;;;;;5047782;28;20544;-73
2023/12/12 12:34:24;;;;;;;4.53;1.10;;;13.30;99.90;;;;;;5059141;28;20481;-72
2023/12/12 12:36:51;;;;;;;2.60;1.50;;;13.30;99.90;;;;;;5027518;28;20461;-75
2023/12/12 12:39:19;;;;;;;2.30;1.33;;;13.40;99.90;;;;;;5066854;28;20553;-71
2023/12/12 12:41:53;;;;;;;10.27;1.33;;;13.30;99.90;;;;;;5050355;28;20464;-73
2023/12/12 12:44:20;;;;;;;4.73;1.10;;;13.30;99.90;;;;;;5046068;28;20531;-72
2023/12/12 12:46:51;;;;;;;1.90;1.23;;;13.30;99.90;;;;;;5034427;28;20472;-73